sensor_id;sensor_type;location;lat;lon;timestamp;P1;durP1;ratioP1;P2;durP2;ratioP2
13483;SDS011;6814;57.786;12.080;2023-03-17T00:01:07;2.43;;;0.70;;
13483;SDS011;6814;57.786;12.080;2023-03-17T00:03:35;1.20;;;0.60;;
13483;SDS011;6814;57.786;12.080;2023-03-17T00:06:01;0.80;;;0.40;;
13483;SDS011;6814;57.786;12.080;2023-03-17T00:08:30;1.57;;;0.83;;
13483;SDS011;6814;57.786;12.080;2023-03-17T00:10:57;2.07;;;0.70;;
13483;SDS011;6814;57.786;12.080;2023-03-17T00:13:24;2.13;;;0.73;;
13483;SDS011;6814;57.786;12.080;2023-03-17T00:15:52;1.07;;;0.50;;
13483;SDS011;6814;57.786;12.080;2023-03-17T00:18:21;2.33;;;0.60;;
13483;SDS011;6814;57.786;12.080;2023-03-17T00:20:47;1.37;;;0.80;;
13483;SDS011;6814;57.786;12.080;2023-03-17T00:23:15;1.00;;;0.63;;
13483;SDS011;6814;57.786;12.080;2023-03-17T00:25:42;3.00;;;0.50;;
13483;SDS011;6814;57.786;12.080;2023-03-17T00:28:12;2.03;;;0.63;;
13483;SDS011;6814;57.786;12.080;2023-03-17T00:30:40;0.83;;;0.50;;
13483;SDS011;6814;57.786;12.080;2023-03-17T00:33:08;1.10;;;0.50;;
13483;SDS011;6814;57.786;12.080;2023-03-17T00:35:36;0.90;;;0.50;;
13483;SDS011;6814;57.786;12.080;2023-03-17T00:38:05;1.27;;;0.50;;
13483;SDS011;6814;57.786;12.080;2023-03-17T00:40:31;4.70;;;0.57;;
13483;SDS011;6814;57.786;12.080;2023-03-17T00:42:58;6.13;;;0.80;;
13483;SDS011;6814;57.786;12.080;2023-03-17T00:45:25;1.00;;;0.37;;
13483;SDS011;6814;57.786;12.080;2023-03-17T00:47:52;3.20;;;0.87;;
13483;SDS011;6814;57.786;12.080;2023-03-17T00:50:21;2.23;;;0.60;;
13483;SDS011;6814;57.786;12.080;2023-03-17T00:52:50;1.57;;;0.70;;
13483;SDS011;6814;57.786;12.080;2023-03-17T00:55:17;3.30;;;0.60;;
13483;SDS011;6814;57.786;12.080;2023-03-17T00:57:44;1.30;;;0.70;;
13483;SDS011;6814;57.786;12.080;2023-03-17T01:00:17;1.53;;;0.50;;
13483;SDS011;6814;57.786;12.080;2023-03-17T01:02:45;2.03;;;0.70;;
13483;SDS011;6814;57.786;12.080;2023-03-17T01:05:12;1.70;;;0.83;;
13483;SDS011;6814;57.786;12.080;2023-03-17T01:07:39;0.80;;;0.60;;
13483;SDS011;6814;57.786;12.080;2023-03-17T01:10:12;1.97;;;0.80;;
13483;SDS011;6814;57.786;12.080;2023-03-17T01:12:39;0.93;;;0.60;;
13483;SDS011;6814;57.786;12.080;2023-03-17T01:15:06;1.70;;;0.67;;
13483;SDS011;6814;57.786;12.080;2023-03-17T01:17:32;1.37;;;0.60;;
13483;SDS011;6814;57.786;12.080;2023-03-17T01:19:59;1.43;;;0.67;;
13483;SDS011;6814;57.786;12.080;2023-03-17T01:22:25;1.23;;;0.63;;
13483;SDS011;6814;57.786;12.080;2023-03-17T01:24:52;1.53;;;0.90;;
13483;SDS011;6814;57.786;12.080;2023-03-17T01:27:19;2.83;;;0.87;;
13483;SDS011;6814;57.786;12.080;2023-03-17T01:29:46;1.50;;;0.63;;
13483;SDS011;6814;57.786;12.080;2023-03-17T01:32:14;2.40;;;0.80;;
13483;SDS011;6814;57.786;12.080;2023-03-17T01:34:47;3.40;;;1.00;;
13483;SDS011;6814;57.786;12.080;2023-03-17T01:37:13;0.67;;;0.50;;
13483;SDS011;6814;57.786;12.080;2023-03-17T01:39:40;1.97;;;0.67;;
13483;SDS011;6814;57.786;12.080;2023-03-17T01:42:06;2.97;;;1.00;;
13483;SDS011;6814;57.786;12.080;2023-03-17T01:44:34;1.37;;;0.50;;
13483;SDS011;6814;57.786;12.080;2023-03-17T01:47:01;2.60;;;0.90;;
13483;SDS011;6814;57.786;12.080;2023-03-17T01:49:27;1.23;;;0.60;;
13483;SDS011;6814;57.786;12.080;2023-03-17T01:51:57;3.13;;;1.20;;
13483;SDS011;6814;57.786;12.080;2023-03-17T01:54:26;1.00;;;0.63;;
13483;SDS011;6814;57.786;12.080;2023-03-17T01:56:54;3.27;;;0.90;;
13483;SDS011;6814;57.786;12.080;2023-03-17T01:59:22;2.73;;;1.00;;
13483;SDS011;6814;57.786;12.080;2023-03-17T02:01:53;1.40;;;0.70;;
13483;SDS011;6814;57.786;12.080;2023-03-17T02:04:21;1.90;;;0.70;;
13483;SDS011;6814;57.786;12.080;2023-03-17T02:06:49;1.67;;;1.10;;
13483;SDS011;6814;57.786;12.080;2023-03-17T02:09:16;3.03;;;1.00;;
13483;SDS011;6814;57.786;12.080;2023-03-17T02:11:43;1.73;;;1.10;;
13483;SDS011;6814;57.786;12.080;2023-03-17T02:14:09;1.93;;;1.20;;
13483;SDS011;6814;57.786;12.080;2023-03-17T02:16:36;2.20;;;1.10;;
13483;SDS011;6814;57.786;12.080;2023-03-17T02:19:04;4.23;;;1.40;;
13483;SDS011;6814;57.786;12.080;2023-03-17T02:21:37;2.40;;;1.13;;
13483;SDS011;6814;57.786;12.080;2023-03-17T02:24:05;2.73;;;1.17;;
13483;SDS011;6814;57.786;12.080;2023-03-17T02:26:33;2.57;;;1.10;;
13483;SDS011;6814;57.786;12.080;2023-03-17T02:29:00;4.27;;;1.83;;
13483;SDS011;6814;57.786;12.080;2023-03-17T02:31:27;2.23;;;1.03;;
13483;SDS011;6814;57.786;12.080;2023-03-17T02:33:54;3.73;;;1.40;;
13483;SDS011;6814;57.786;12.080;2023-03-17T02:36:21;3.00;;;1.30;;
13483;SDS011;6814;57.786;12.080;2023-03-17T02:38:49;3.27;;;1.30;;
13483;SDS011;6814;57.786;12.080;2023-03-17T02:41:16;2.37;;;1.30;;
13483;SDS011;6814;57.786;12.080;2023-03-17T02:43:42;3.60;;;1.30;;
13483;SDS011;6814;57.786;12.080;2023-03-17T02:46:09;1.83;;;1.03;;
13483;SDS011;6814;57.786;12.080;2023-03-17T02:48:35;4.47;;;1.30;;
13483;SDS011;6814;57.786;12.080;2023-03-17T02:51:02;3.80;;;1.37;;
13483;SDS011;6814;57.786;12.080;2023-03-17T02:53:29;1.70;;;0.90;;
13483;SDS011;6814;57.786;12.080;2023-03-17T02:55:57;4.50;;;1.43;;
13483;SDS011;6814;57.786;12.080;2023-03-17T02:58:24;2.60;;;1.17;;
13483;SDS011;6814;57.786;12.080;2023-03-17T03:00:51;6.23;;;1.40;;
13483;SDS011;6814;57.786;12.080;2023-03-17T03:03:17;1.27;;;1.00;;
13483;SDS011;6814;57.786;12.080;2023-03-17T03:05:44;3.50;;;1.67;;
13483;SDS011;6814;57.786;12.080;2023-03-17T03:08:11;4.00;;;1.37;;
13483;SDS011;6814;57.786;12.080;2023-03-17T03:10:37;5.17;;;1.47;;
13483;SDS011;6814;57.786;12.080;2023-03-17T03:13:05;4.57;;;1.20;;
13483;SDS011;6814;57.786;12.080;2023-03-17T03:15:32;1.83;;;1.20;;
13483;SDS011;6814;57.786;12.080;2023-03-17T03:17:58;1.83;;;1.33;;
13483;SDS011;6814;57.786;12.080;2023-03-17T03:20:24;2.57;;;1.13;;
13483;SDS011;6814;57.786;12.080;2023-03-17T03:22:51;1.57;;;1.27;;
13483;SDS011;6814;57.786;12.080;2023-03-17T03:25:17;5.47;;;1.80;;
13483;SDS011;6814;57.786;12.080;2023-03-17T03:27:44;3.47;;;1.30;;
13483;SDS011;6814;57.786;12.080;2023-03-17T03:30:12;2.57;;;1.20;;
13483;SDS011;6814;57.786;12.080;2023-03-17T03:32:38;4.67;;;1.63;;
13483;SDS011;6814;57.786;12.080;2023-03-17T03:35:05;3.80;;;1.23;;
13483;SDS011;6814;57.786;12.080;2023-03-17T03:37:32;3.83;;;1.47;;
13483;SDS011;6814;57.786;12.080;2023-03-17T03:39:58;1.80;;;1.23;;
13483;SDS011;6814;57.786;12.080;2023-03-17T03:42:25;5.10;;;1.57;;
13483;SDS011;6814;57.786;12.080;2023-03-17T03:44:51;3.53;;;1.30;;
13483;SDS011;6814;57.786;12.080;2023-03-17T03:47:19;2.80;;;1.30;;
13483;SDS011;6814;57.786;12.080;2023-03-17T03:49:46;4.33;;;1.57;;
13483;SDS011;6814;57.786;12.080;2023-03-17T03:52:12;1.57;;;1.40;;
13483;SDS011;6814;57.786;12.080;2023-03-17T03:54:38;1.57;;;1.10;;
13483;SDS011;6814;57.786;12.080;2023-03-17T03:57:05;1.60;;;1.33;;
13483;SDS011;6814;57.786;12.080;2023-03-17T03:59:31;3.00;;;1.00;;
13483;SDS011;6814;57.786;12.080;2023-03-17T04:01:58;4.27;;;1.40;;
13483;SDS011;6814;57.786;12.080;2023-03-17T04:04:26;2.80;;;1.00;;
13483;SDS011;6814;57.786;12.080;2023-03-17T04:06:52;2.97;;;1.17;;
13483;SDS011;6814;57.786;12.080;2023-03-17T04:09:19;1.30;;;1.20;;
13483;SDS011;6814;57.786;12.080;2023-03-17T04:11:45;1.50;;;1.00;;
13483;SDS011;6814;57.786;12.080;2023-03-17T04:14:12;1.60;;;1.30;;
13483;SDS011;6814;57.786;12.080;2023-03-17T04:16:38;2.30;;;1.10;;
13483;SDS011;6814;57.786;12.080;2023-03-17T04:19:05;2.57;;;1.30;;
13483;SDS011;6814;57.786;12.080;2023-03-17T04:21:32;1.63;;;1.00;;
13483;SDS011;6814;57.786;12.080;2023-03-17T04:23:59;4.67;;;1.10;;
13483;SDS011;6814;57.786;12.080;2023-03-17T04:26:25;1.63;;;1.10;;
13483;SDS011;6814;57.786;12.080;2023-03-17T04:28:52;5.27;;;1.27;;
13483;SDS011;6814;57.786;12.080;2023-03-17T04:31:18;2.87;;;1.10;;
13483;SDS011;6814;57.786;12.080;2023-03-17T04:33:45;2.10;;;1.03;;
13483;SDS011;6814;57.786;12.080;2023-03-17T04:36:14;3.03;;;1.53;;
13483;SDS011;6814;57.786;12.080;2023-03-17T04:38:43;1.70;;;1.03;;
13483;SDS011;6814;57.786;12.080;2023-03-17T04:41:10;2.57;;;1.50;;
13483;SDS011;6814;57.786;12.080;2023-03-17T04:43:36;1.70;;;1.13;;
13483;SDS011;6814;57.786;12.080;2023-03-17T04:46:03;3.87;;;1.13;;
13483;SDS011;6814;57.786;12.080;2023-03-17T04:48:29;3.57;;;1.50;;
13483;SDS011;6814;57.786;12.080;2023-03-17T04:50:56;1.80;;;1.23;;
13483;SDS011;6814;57.786;12.080;2023-03-17T04:53:23;2.80;;;1.70;;
13483;SDS011;6814;57.786;12.080;2023-03-17T04:55:51;2.60;;;1.23;;
13483;SDS011;6814;57.786;12.080;2023-03-17T04:58:17;3.00;;;1.60;;
13483;SDS011;6814;57.786;12.080;2023-03-17T05:00:44;3.67;;;1.40;;
13483;SDS011;6814;57.786;12.080;2023-03-17T05:03:10;3.17;;;1.30;;
13483;SDS011;6814;57.786;12.080;2023-03-17T05:05:37;1.87;;;1.40;;
13483;SDS011;6814;57.786;12.080;2023-03-17T05:08:03;5.77;;;1.40;;
13483;SDS011;6814;57.786;12.080;2023-03-17T05:10:30;2.27;;;1.33;;
13483;SDS011;6814;57.786;12.080;2023-03-17T05:12:58;2.73;;;1.30;;
13483;SDS011;6814;57.786;12.080;2023-03-17T05:15:25;2.83;;;1.80;;
13483;SDS011;6814;57.786;12.080;2023-03-17T05:17:51;3.70;;;1.43;;
13483;SDS011;6814;57.786;12.080;2023-03-17T05:20:17;5.03;;;1.93;;
13483;SDS011;6814;57.786;12.080;2023-03-17T05:22:44;3.20;;;1.47;;
13483;SDS011;6814;57.786;12.080;2023-03-17T05:25:11;3.50;;;1.50;;
13483;SDS011;6814;57.786;12.080;2023-03-17T05:27:37;2.77;;;1.50;;
13483;SDS011;6814;57.786;12.080;2023-03-17T05:30:06;4.97;;;1.97;;
13483;SDS011;6814;57.786;12.080;2023-03-17T05:32:33;4.10;;;1.80;;
13483;SDS011;6814;57.786;12.080;2023-03-17T05:34:59;2.47;;;1.70;;
13483;SDS011;6814;57.786;12.080;2023-03-17T05:37:26;4.30;;;1.93;;
13483;SDS011;6814;57.786;12.080;2023-03-17T05:39:52;3.80;;;1.67;;
13483;SDS011;6814;57.786;12.080;2023-03-17T05:42:22;6.80;;;1.93;;
13483;SDS011;6814;57.786;12.080;2023-03-17T05:44:49;2.63;;;1.67;;
13483;SDS011;6814;57.786;12.080;2023-03-17T05:47:16;4.47;;;2.13;;
13483;SDS011;6814;57.786;12.080;2023-03-17T05:49:43;4.53;;;1.83;;
13483;SDS011;6814;57.786;12.080;2023-03-17T05:52:10;5.57;;;2.17;;
13483;SDS011;6814;57.786;12.080;2023-03-17T05:54:36;2.43;;;1.90;;
13483;SDS011;6814;57.786;12.080;2023-03-17T05:57:03;4.40;;;2.13;;
13483;SDS011;6814;57.786;12.080;2023-03-17T05:59:29;5.23;;;2.67;;
13483;SDS011;6814;57.786;12.080;2023-03-17T06:01:56;6.17;;;2.37;;
13483;SDS011;6814;57.786;12.080;2023-03-17T06:04:24;5.10;;;2.37;;
13483;SDS011;6814;57.786;12.080;2023-03-17T06:06:50;7.27;;;2.63;;
13483;SDS011;6814;57.786;12.080;2023-03-17T06:09:17;6.33;;;3.30;;
13483;SDS011;6814;57.786;12.080;2023-03-17T06:11:44;5.77;;;2.60;;
13483;SDS011;6814;57.786;12.080;2023-03-17T06:14:10;5.40;;;2.87;;
13483;SDS011;6814;57.786;12.080;2023-03-17T06:16:37;6.17;;;2.67;;
13483;SDS011;6814;57.786;12.080;2023-03-17T06:19:03;5.37;;;2.47;;
13483;SDS011;6814;57.786;12.080;2023-03-17T06:21:31;5.70;;;2.50;;
13483;SDS011;6814;57.786;12.080;2023-03-17T06:23:58;4.80;;;2.70;;
13483;SDS011;6814;57.786;12.080;2023-03-17T06:26:24;5.60;;;1.93;;
13483;SDS011;6814;57.786;12.080;2023-03-17T06:28:52;4.37;;;2.37;;
13483;SDS011;6814;57.786;12.080;2023-03-17T06:31:18;5.53;;;2.40;;
13483;SDS011;6814;57.786;12.080;2023-03-17T06:33:46;4.47;;;2.13;;
13483;SDS011;6814;57.786;12.080;2023-03-17T06:36:12;4.00;;;2.63;;
13483;SDS011;6814;57.786;12.080;2023-03-17T06:38:40;4.67;;;2.20;;
13483;SDS011;6814;57.786;12.080;2023-03-17T06:41:07;6.27;;;1.97;;
13483;SDS011;6814;57.786;12.080;2023-03-17T06:43:34;6.20;;;2.17;;
13483;SDS011;6814;57.786;12.080;2023-03-17T06:46:00;6.13;;;2.17;;
13483;SDS011;6814;57.786;12.080;2023-03-17T06:48:27;3.33;;;2.00;;
13483;SDS011;6814;57.786;12.080;2023-03-17T06:50:53;4.30;;;2.30;;
13483;SDS011;6814;57.786;12.080;2023-03-17T06:53:20;4.90;;;2.10;;
13483;SDS011;6814;57.786;12.080;2023-03-17T06:55:48;3.47;;;2.13;;
13483;SDS011;6814;57.786;12.080;2023-03-17T06:58:14;4.93;;;2.47;;
13483;SDS011;6814;57.786;12.080;2023-03-17T07:00:42;3.93;;;2.20;;
13483;SDS011;6814;57.786;12.080;2023-03-17T07:03:09;6.93;;;2.00;;
13483;SDS011;6814;57.786;12.080;2023-03-17T07:05:36;3.80;;;2.17;;
13483;SDS011;6814;57.786;12.080;2023-03-17T07:08:03;4.40;;;2.20;;
13483;SDS011;6814;57.786;12.080;2023-03-17T07:10:30;5.63;;;2.40;;
13483;SDS011;6814;57.786;12.080;2023-03-17T07:12:58;5.83;;;2.47;;
13483;SDS011;6814;57.786;12.080;2023-03-17T07:15:26;4.80;;;2.20;;
13483;SDS011;6814;57.786;12.080;2023-03-17T07:17:55;4.87;;;2.10;;
13483;SDS011;6814;57.786;12.080;2023-03-17T07:20:22;3.10;;;2.53;;
13483;SDS011;6814;57.786;12.080;2023-03-17T07:22:48;7.10;;;2.90;;
13483;SDS011;6814;57.786;12.080;2023-03-17T07:25:15;6.33;;;2.50;;
13483;SDS011;6814;57.786;12.080;2023-03-17T07:27:42;5.10;;;2.47;;
13483;SDS011;6814;57.786;12.080;2023-03-17T07:30:10;4.80;;;2.30;;
13483;SDS011;6814;57.786;12.080;2023-03-17T07:32:38;5.43;;;3.03;;
13483;SDS011;6814;57.786;12.080;2023-03-17T07:35:05;3.10;;;2.80;;
13483;SDS011;6814;57.786;12.080;2023-03-17T07:37:32;5.87;;;3.23;;
13483;SDS011;6814;57.786;12.080;2023-03-17T07:39:58;4.50;;;3.43;;
13483;SDS011;6814;57.786;12.080;2023-03-17T07:42:25;3.23;;;2.83;;
13483;SDS011;6814;57.786;12.080;2023-03-17T07:44:52;7.20;;;3.27;;
13483;SDS011;6814;57.786;12.080;2023-03-17T07:47:20;5.80;;;3.60;;
13483;SDS011;6814;57.786;12.080;2023-03-17T07:49:47;7.53;;;3.67;;
13483;SDS011;6814;57.786;12.080;2023-03-17T07:52:13;5.83;;;3.80;;
13483;SDS011;6814;57.786;12.080;2023-03-17T07:54:40;6.53;;;3.67;;
13483;SDS011;6814;57.786;12.080;2023-03-17T07:57:07;7.53;;;4.20;;
13483;SDS011;6814;57.786;12.080;2023-03-17T07:59:34;5.27;;;3.90;;
13483;SDS011;6814;57.786;12.080;2023-03-17T08:02:00;8.10;;;4.00;;
13483;SDS011;6814;57.786;12.080;2023-03-17T08:04:29;9.33;;;4.10;;
13483;SDS011;6814;57.786;12.080;2023-03-17T08:06:55;9.10;;;4.27;;
13483;SDS011;6814;57.786;12.080;2023-03-17T08:09:22;6.30;;;4.07;;
13483;SDS011;6814;57.786;12.080;2023-03-17T08:11:48;8.87;;;4.47;;
13483;SDS011;6814;57.786;12.080;2023-03-17T08:14:15;9.80;;;4.43;;
13483;SDS011;6814;57.786;12.080;2023-03-17T08:16:41;5.50;;;4.50;;
13483;SDS011;6814;57.786;12.080;2023-03-17T08:19:08;7.33;;;3.93;;
13483;SDS011;6814;57.786;12.080;2023-03-17T08:21:36;7.07;;;4.13;;
13483;SDS011;6814;57.786;12.080;2023-03-17T08:24:02;9.93;;;4.43;;
13483;SDS011;6814;57.786;12.080;2023-03-17T08:26:29;8.60;;;5.03;;
13483;SDS011;6814;57.786;12.080;2023-03-17T08:28:56;7.83;;;4.40;;
13483;SDS011;6814;57.786;12.080;2023-03-17T08:31:24;6.60;;;4.47;;
13483;SDS011;6814;57.786;12.080;2023-03-17T08:33:52;8.07;;;4.80;;
13483;SDS011;6814;57.786;12.080;2023-03-17T08:36:21;6.73;;;4.33;;
13483;SDS011;6814;57.786;12.080;2023-03-17T08:38:49;8.50;;;4.20;;
13483;SDS011;6814;57.786;12.080;2023-03-17T08:41:17;6.03;;;4.07;;
13483;SDS011;6814;57.786;12.080;2023-03-17T08:43:44;7.73;;;4.30;;
13483;SDS011;6814;57.786;12.080;2023-03-17T08:46:18;6.50;;;4.40;;
13483;SDS011;6814;57.786;12.080;2023-03-17T08:48:46;10.37;;;4.40;;
13483;SDS011;6814;57.786;12.080;2023-03-17T08:51:13;8.50;;;5.07;;
13483;SDS011;6814;57.786;12.080;2023-03-17T08:53:40;7.90;;;4.33;;
13483;SDS011;6814;57.786;12.080;2023-03-17T08:56:08;9.73;;;4.50;;
13483;SDS011;6814;57.786;12.080;2023-03-17T08:58:35;6.17;;;4.57;;
13483;SDS011;6814;57.786;12.080;2023-03-17T09:01:03;9.50;;;4.70;;
13483;SDS011;6814;57.786;12.080;2023-03-17T09:03:30;6.97;;;4.30;;
13483;SDS011;6814;57.786;12.080;2023-03-17T09:05:57;6.40;;;4.17;;
13483;SDS011;6814;57.786;12.080;2023-03-17T09:08:25;5.67;;;4.20;;
13483;SDS011;6814;57.786;12.080;2023-03-17T09:10:51;6.30;;;4.07;;
13483;SDS011;6814;57.786;12.080;2023-03-17T09:13:19;7.67;;;4.33;;
13483;SDS011;6814;57.786;12.080;2023-03-17T09:15:46;6.27;;;4.53;;
13483;SDS011;6814;57.786;12.080;2023-03-17T09:18:13;8.97;;;4.67;;
13483;SDS011;6814;57.786;12.080;2023-03-17T09:20:39;9.47;;;4.20;;
13483;SDS011;6814;57.786;12.080;2023-03-17T09:23:06;4.93;;;3.90;;
13483;SDS011;6814;57.786;12.080;2023-03-17T09:25:33;6.77;;;3.90;;
13483;SDS011;6814;57.786;12.080;2023-03-17T09:27:59;8.70;;;4.47;;
13483;SDS011;6814;57.786;12.080;2023-03-17T09:30:27;5.83;;;4.13;;
13483;SDS011;6814;57.786;12.080;2023-03-17T09:32:54;7.67;;;4.40;;
13483;SDS011;6814;57.786;12.080;2023-03-17T09:35:20;7.23;;;4.30;;
13483;SDS011;6814;57.786;12.080;2023-03-17T09:37:47;8.13;;;4.17;;
13483;SDS011;6814;57.786;12.080;2023-03-17T09:40:15;9.37;;;4.63;;
13483;SDS011;6814;57.786;12.080;2023-03-17T09:42:45;7.13;;;4.67;;
13483;SDS011;6814;57.786;12.080;2023-03-17T09:45:21;7.37;;;4.43;;
13483;SDS011;6814;57.786;12.080;2023-03-17T09:47:53;7.80;;;4.70;;
13483;SDS011;6814;57.786;12.080;2023-03-17T09:50:24;6.37;;;4.70;;
13483;SDS011;6814;57.786;12.080;2023-03-17T09:52:53;8.00;;;5.00;;
13483;SDS011;6814;57.786;12.080;2023-03-17T09:55:22;8.27;;;4.47;;
13483;SDS011;6814;57.786;12.080;2023-03-17T09:57:50;8.97;;;4.77;;
13483;SDS011;6814;57.786;12.080;2023-03-17T10:00:20;6.27;;;4.47;;
13483;SDS011;6814;57.786;12.080;2023-03-17T10:02:50;9.67;;;5.23;;
13483;SDS011;6814;57.786;12.080;2023-03-17T10:05:19;7.03;;;4.70;;
13483;SDS011;6814;57.786;12.080;2023-03-17T10:07:47;6.30;;;4.97;;
13483;SDS011;6814;57.786;12.080;2023-03-17T10:10:15;7.50;;;4.67;;
13483;SDS011;6814;57.786;12.080;2023-03-17T10:12:46;8.27;;;5.20;;
13483;SDS011;6814;57.786;12.080;2023-03-17T10:15:17;6.07;;;5.10;;
13483;SDS011;6814;57.786;12.080;2023-03-17T10:17:46;6.17;;;4.70;;
13483;SDS011;6814;57.786;12.080;2023-03-17T10:20:13;6.97;;;4.80;;
13483;SDS011;6814;57.786;12.080;2023-03-17T10:22:44;5.63;;;4.73;;
13483;SDS011;6814;57.786;12.080;2023-03-17T10:25:12;8.33;;;5.63;;
13483;SDS011;6814;57.786;12.080;2023-03-17T10:27:39;7.57;;;5.07;;
13483;SDS011;6814;57.786;12.080;2023-03-17T10:30:09;7.33;;;4.80;;
13483;SDS011;6814;57.786;12.080;2023-03-17T10:32:37;8.40;;;5.10;;
13483;SDS011;6814;57.786;12.080;2023-03-17T10:35:04;8.03;;;4.97;;
13483;SDS011;6814;57.786;12.080;2023-03-17T10:37:31;5.17;;;4.67;;
13483;SDS011;6814;57.786;12.080;2023-03-17T10:40:03;7.97;;;4.73;;
13483;SDS011;6814;57.786;12.080;2023-03-17T10:42:34;8.50;;;5.10;;
13483;SDS011;6814;57.786;12.080;2023-03-17T10:45:12;8.13;;;5.00;;
13483;SDS011;6814;57.786;12.080;2023-03-17T10:47:42;9.40;;;5.40;;
13483;SDS011;6814;57.786;12.080;2023-03-17T10:50:17;8.40;;;5.50;;
13483;SDS011;6814;57.786;12.080;2023-03-17T10:52:44;9.87;;;6.13;;
13483;SDS011;6814;57.786;12.080;2023-03-17T10:55:13;8.30;;;5.00;;
13483;SDS011;6814;57.786;12.080;2023-03-17T10:57:41;7.67;;;5.60;;
13483;SDS011;6814;57.786;12.080;2023-03-17T11:00:15;8.53;;;5.00;;
13483;SDS011;6814;57.786;12.080;2023-03-17T11:02:45;6.27;;;5.30;;
13483;SDS011;6814;57.786;12.080;2023-03-17T11:05:17;6.47;;;5.67;;
13483;SDS011;6814;57.786;12.080;2023-03-17T11:07:44;9.27;;;5.20;;
13483;SDS011;6814;57.786;12.080;2023-03-17T11:12:45;7.23;;;5.40;;
13483;SDS011;6814;57.786;12.080;2023-03-17T11:15:14;7.20;;;5.27;;
13483;SDS011;6814;57.786;12.080;2023-03-17T11:17:44;8.43;;;5.03;;
13483;SDS011;6814;57.786;12.080;2023-03-17T11:20:23;7.37;;;5.00;;
13483;SDS011;6814;57.786;12.080;2023-03-17T11:22:53;6.87;;;5.33;;
13483;SDS011;6814;57.786;12.080;2023-03-17T11:25:21;5.33;;;4.63;;
13483;SDS011;6814;57.786;12.080;2023-03-17T11:27:52;6.60;;;4.83;;
13483;SDS011;6814;57.786;12.080;2023-03-17T11:30:25;7.17;;;4.90;;
13483;SDS011;6814;57.786;12.080;2023-03-17T11:32:54;6.63;;;4.57;;
13483;SDS011;6814;57.786;12.080;2023-03-17T11:35:26;8.60;;;5.00;;
13483;SDS011;6814;57.786;12.080;2023-03-17T11:38:08;6.23;;;4.70;;
13483;SDS011;6814;57.786;12.080;2023-03-17T11:40:45;6.67;;;4.63;;
13483;SDS011;6814;57.786;12.080;2023-03-17T11:43:20;6.60;;;4.47;;
13483;SDS011;6814;57.786;12.080;2023-03-17T11:45:50;6.67;;;4.70;;
13483;SDS011;6814;57.786;12.080;2023-03-17T11:48:21;7.33;;;4.50;;
13483;SDS011;6814;57.786;12.080;2023-03-17T11:50:50;7.70;;;4.63;;
13483;SDS011;6814;57.786;12.080;2023-03-17T11:53:24;8.30;;;4.90;;
13483;SDS011;6814;57.786;12.080;2023-03-17T11:55:55;7.47;;;4.67;;
13483;SDS011;6814;57.786;12.080;2023-03-17T11:58:27;8.10;;;5.00;;
13483;SDS011;6814;57.786;12.080;2023-03-17T12:00:55;6.63;;;4.80;;
13483;SDS011;6814;57.786;12.080;2023-03-17T12:03:25;5.93;;;4.50;;
13483;SDS011;6814;57.786;12.080;2023-03-17T12:05:55;7.20;;;4.90;;
13483;SDS011;6814;57.786;12.080;2023-03-17T12:08:26;6.83;;;4.30;;
13483;SDS011;6814;57.786;12.080;2023-03-17T12:10:55;6.03;;;4.70;;
13483;SDS011;6814;57.786;12.080;2023-03-17T12:13:23;8.70;;;4.83;;
13483;SDS011;6814;57.786;12.080;2023-03-17T12:15:53;6.23;;;4.77;;
13483;SDS011;6814;57.786;12.080;2023-03-17T12:18:23;5.70;;;4.50;;
13483;SDS011;6814;57.786;12.080;2023-03-17T12:20:52;5.40;;;4.43;;
13483;SDS011;6814;57.786;12.080;2023-03-17T12:23:23;7.13;;;4.63;;
13483;SDS011;6814;57.786;12.080;2023-03-17T12:25:56;6.93;;;4.03;;
13483;SDS011;6814;57.786;12.080;2023-03-17T12:28:25;5.70;;;4.17;;
13483;SDS011;6814;57.786;12.080;2023-03-17T12:30:54;6.40;;;4.57;;
13483;SDS011;6814;57.786;12.080;2023-03-17T12:33:26;7.43;;;4.33;;
13483;SDS011;6814;57.786;12.080;2023-03-17T12:35:54;6.17;;;3.97;;
13483;SDS011;6814;57.786;12.080;2023-03-17T12:38:24;5.30;;;4.20;;
13483;SDS011;6814;57.786;12.080;2023-03-17T12:41:09;5.47;;;4.17;;
13483;SDS011;6814;57.786;12.080;2023-03-17T12:43:39;6.23;;;4.10;;
13483;SDS011;6814;57.786;12.080;2023-03-17T12:46:19;4.93;;;4.20;;
13483;SDS011;6814;57.786;12.080;2023-03-17T12:51:41;8.53;;;4.63;;
13483;SDS011;6814;57.786;12.080;2023-03-17T12:54:12;6.50;;;4.27;;
13483;SDS011;6814;57.786;12.080;2023-03-17T12:56:42;9.17;;;4.60;;
13483;SDS011;6814;57.786;12.080;2023-03-17T12:59:13;6.20;;;4.37;;
13483;SDS011;6814;57.786;12.080;2023-03-17T13:01:43;6.83;;;4.37;;
13483;SDS011;6814;57.786;12.080;2023-03-17T13:04:14;8.77;;;4.93;;
13483;SDS011;6814;57.786;12.080;2023-03-17T13:06:42;8.43;;;4.47;;
13483;SDS011;6814;57.786;12.080;2023-03-17T13:09:25;7.37;;;4.20;;
13483;SDS011;6814;57.786;12.080;2023-03-17T13:11:52;7.37;;;4.80;;
13483;SDS011;6814;57.786;12.080;2023-03-17T13:14:22;7.00;;;4.73;;
13483;SDS011;6814;57.786;12.080;2023-03-17T13:16:51;7.63;;;4.33;;
13483;SDS011;6814;57.786;12.080;2023-03-17T13:19:19;7.77;;;4.60;;
13483;SDS011;6814;57.786;12.080;2023-03-17T13:21:50;7.90;;;5.07;;
13483;SDS011;6814;57.786;12.080;2023-03-17T13:29:56;8.10;;;5.03;;
13483;SDS011;6814;57.786;12.080;2023-03-17T13:32:31;7.87;;;5.10;;
13483;SDS011;6814;57.786;12.080;2023-03-17T13:40:42;8.70;;;5.30;;
13483;SDS011;6814;57.786;12.080;2023-03-17T13:43:18;6.77;;;4.73;;
13483;SDS011;6814;57.786;12.080;2023-03-17T13:45:47;6.77;;;5.17;;
13483;SDS011;6814;57.786;12.080;2023-03-17T13:48:26;7.73;;;4.90;;
13483;SDS011;6814;57.786;12.080;2023-03-17T13:50:57;6.33;;;4.77;;
13483;SDS011;6814;57.786;12.080;2023-03-17T13:53:26;10.40;;;5.13;;
13483;SDS011;6814;57.786;12.080;2023-03-17T13:56:04;6.07;;;4.87;;
13483;SDS011;6814;57.786;12.080;2023-03-17T13:58:33;5.90;;;4.73;;
13483;SDS011;6814;57.786;12.080;2023-03-17T14:01:01;7.33;;;5.07;;
13483;SDS011;6814;57.786;12.080;2023-03-17T14:03:34;8.07;;;5.73;;
13483;SDS011;6814;57.786;12.080;2023-03-17T14:06:03;9.57;;;5.13;;
13483;SDS011;6814;57.786;12.080;2023-03-17T14:08:32;5.47;;;4.53;;
13483;SDS011;6814;57.786;12.080;2023-03-17T14:11:00;8.70;;;4.93;;
13483;SDS011;6814;57.786;12.080;2023-03-17T14:13:28;8.27;;;4.93;;
13483;SDS011;6814;57.786;12.080;2023-03-17T14:15:57;8.40;;;5.17;;
13483;SDS011;6814;57.786;12.080;2023-03-17T14:18:28;7.57;;;5.40;;
13483;SDS011;6814;57.786;12.080;2023-03-17T14:20:57;8.33;;;5.17;;
13483;SDS011;6814;57.786;12.080;2023-03-17T14:23:24;7.77;;;4.97;;
13483;SDS011;6814;57.786;12.080;2023-03-17T14:25:53;8.23;;;5.40;;
13483;SDS011;6814;57.786;12.080;2023-03-17T14:28:21;8.13;;;5.70;;
13483;SDS011;6814;57.786;12.080;2023-03-17T14:30:50;8.07;;;5.30;;
13483;SDS011;6814;57.786;12.080;2023-03-17T14:33:20;7.90;;;5.10;;
13483;SDS011;6814;57.786;12.080;2023-03-17T14:35:48;10.70;;;5.77;;
13483;SDS011;6814;57.786;12.080;2023-03-17T14:38:17;7.30;;;5.73;;
13483;SDS011;6814;57.786;12.080;2023-03-17T14:40:45;7.67;;;5.20;;
13483;SDS011;6814;57.786;12.080;2023-03-17T14:43:11;8.87;;;5.67;;
13483;SDS011;6814;57.786;12.080;2023-03-17T14:45:47;7.87;;;5.67;;
13483;SDS011;6814;57.786;12.080;2023-03-17T14:48:15;9.50;;;6.07;;
13483;SDS011;6814;57.786;12.080;2023-03-17T14:50:47;8.93;;;5.60;;
13483;SDS011;6814;57.786;12.080;2023-03-17T14:53:17;10.07;;;5.53;;
13483;SDS011;6814;57.786;12.080;2023-03-17T14:55:44;8.20;;;5.67;;
13483;SDS011;6814;57.786;12.080;2023-03-17T14:58:16;9.20;;;6.60;;
13483;SDS011;6814;57.786;12.080;2023-03-17T15:00:45;10.07;;;6.30;;
13483;SDS011;6814;57.786;12.080;2023-03-17T15:03:17;10.17;;;5.97;;
13483;SDS011;6814;57.786;12.080;2023-03-17T15:05:44;9.60;;;6.13;;
13483;SDS011;6814;57.786;12.080;2023-03-17T15:08:34;9.23;;;5.83;;
13483;SDS011;6814;57.786;12.080;2023-03-17T15:11:03;10.83;;;6.20;;